Terminal Aerodrome Forecast
Issued by NWS

Home | Current Version | Previous Version | Text Only | Print | Product List | Glossary On
Versions: 1 2 3 4 5 6 7 8 9 10 11 12 13 14 15 16 17 18 19 20 21 22 23 24 25 26 27
000
FTUS43 KGRB 212200 AAC
TAFCWA
TAF AMD
KCWA 212220Z 2122/2218 12006KT P6SM OVC010
      TEMPO 2122/2124 6SM BR SCT010 BKN025
     FM220000 13006KT P6SM SCT018 BKN035
     FM220100 11004KT 5SM BR SCT015 BKN035
     FM220400 VRB03KT 2SM BR BKN004 BKN012
      TEMPO 2208/2212 3/4SM BR BKN003=

USA.gov is the U.S. government's official web portal to all federal, state and local government web resources and services.